Time;durP1;ratioP1;P1;durP2;ratioP2;P2;SDS_P1;SDS_P2;PMS_P1;PMS_P2;Temp;Humidity;BMP_temperature;BMP_pressure;BME280_temperature;BME280_humidity;BME280_pressure;Samples;Min_cycle;Max_cycle;Signal;HPM_P1;HPM_P2
2023/03/17 00:02:15;;;;;;;12.57;7.18;;;14.10;99.90;;;;;;5035105;28;20044;-77
2023/03/17 00:04:41;;;;;;;9.35;7.32;;;14.00;99.90;;;;;;5034681;28;20025;-77
2023/03/17 00:07:09;;;;;;;10.40;7.47;;;14.00;99.90;;;;;;5035672;28;20041;-77
2023/03/17 00:09:35;;;;;;;9.85;7.10;;;14.00;99.90;;;;;;5018230;28;20363;-77
2023/03/17 00:12:01;;;;;;;9.65;7.45;;;14.00;99.90;;;;;;5009310;28;20049;-78
2023/03/17 00:14:27;;;;;;;10.45;7.95;;;13.90;99.90;;;;;;5011430;28;20467;-77
2023/03/17 00:16:53;;;;;;;12.25;8.52;;;13.90;99.90;;;;;;4994347;28;20030;-77
2023/03/17 00:19:29;;;;;;;10.60;8.73;;;13.90;99.90;;;;;;5011253;28;20464;-77
2023/03/17 00:21:57;;;;;;;11.52;8.55;;;13.90;99.90;;;;;;4994817;28;20046;-77
2023/03/17 00:24:23;;;;;;;12.38;8.45;;;13.90;99.90;;;;;;5029991;28;20037;-77
2023/03/17 00:26:49;;;;;;;14.25;8.68;;;13.90;99.90;;;;;;5030938;28;20037;-77
2023/03/17 00:29:15;;;;;;;10.27;9.20;;;13.90;99.90;;;;;;5034238;28;20022;-77
2023/03/17 00:31:42;;;;;;;10.27;9.05;;;13.90;99.90;;;;;;5034473;28;20040;-77
2023/03/17 00:34:11;;;;;;;10.98;8.30;;;13.80;99.90;;;;;;5034001;28;20040;-77
2023/03/17 00:36:37;;;;;;;11.85;9.57;;;13.90;99.90;;;;;;5017799;28;20029;-77
2023/03/17 00:39:05;;;;;;;13.68;9.50;;;13.70;99.90;;;;;;5017597;28;20394;-77
2023/03/17 00:41:31;;;;;;;14.05;9.27;;;13.50;99.90;;;;;;5034143;28;20367;-77
2023/03/17 00:43:57;;;;;;;13.35;9.02;;;13.50;99.90;;;;;;5035091;28;20029;-77
2023/03/17 00:46:29;;;;;;;9.90;8.43;;;13.60;99.90;;;;;;5033257;28;20379;-77
2023/03/17 00:48:56;;;;;;;12.48;8.98;;;13.60;99.90;;;;;;5018118;28;20394;-77
2023/03/17 00:51:22;;;;;;;13.75;8.50;;;13.60;99.90;;;;;;5033404;28;20037;-77
2023/03/17 00:53:49;;;;;;;11.13;7.82;;;13.70;99.90;;;;;;5034853;28;20022;-77
2023/03/17 00:56:16;;;;;;;10.70;8.05;;;13.70;99.90;;;;;;5017292;28;20021;-77
2023/03/17 00:58:42;;;;;;;12.18;8.02;;;13.60;99.90;;;;;;5016949;28;20034;-77
2023/03/17 01:01:09;;;;;;;12.15;7.85;;;13.60;99.90;;;;;;5033249;28;20521;-77
2023/03/17 01:03:35;;;;;;;12.60;8.18;;;13.60;99.90;;;;;;5034740;28;20029;-77
2023/03/17 01:06:03;;;;;;;13.13;8.27;;;13.60;99.90;;;;;;5016976;28;20497;-77
2023/03/17 01:08:30;;;;;;;12.57;8.77;;;13.40;99.90;;;;;;5034703;28;20058;-77
2023/03/17 01:10:56;;;;;;;11.90;8.85;;;13.50;99.90;;;;;;5033425;28;20402;-78
2023/03/17 01:13:22;;;;;;;11.57;7.72;;;13.40;99.90;;;;;;5017290;28;20037;-78
2023/03/17 01:15:49;;;;;;;9.65;7.40;;;13.40;99.90;;;;;;5029689;28;20034;-78
2023/03/17 01:18:16;;;;;;;9.68;7.70;;;13.00;99.90;;;;;;5030059;28;20030;-77
2023/03/17 01:20:42;;;;;;;11.30;7.90;;;12.60;99.90;;;;;;5029974;28;20034;-79
2023/03/17 01:23:09;;;;;;;9.85;7.93;;;12.50;99.90;;;;;;5014270;28;20038;-78
2023/03/17 01:25:36;;;;;;;12.30;8.02;;;12.50;99.90;;;;;;5018582;28;20030;-79
2023/03/17 01:28:02;;;;;;;10.93;8.05;;;12.70;99.90;;;;;;5032732;28;20041;-78
2023/03/17 01:30:38;;;;;;;11.77;8.40;;;12.90;99.90;;;;;;5033854;28;20026;-78
2023/03/17 01:33:07;;;;;;;13.70;8.25;;;13.00;99.90;;;;;;5017903;28;20021;-79
2023/03/17 01:35:34;;;;;;;10.35;7.50;;;13.10;99.90;;;;;;5033168;28;20045;-78
2023/03/17 01:38:00;;;;;;;9.88;7.80;;;13.10;99.90;;;;;;5032941;28;20024;-78
2023/03/17 01:40:29;;;;;;;8.65;7.75;;;13.10;99.90;;;;;;5032790;28;20470;-78
2023/03/17 01:43:05;;;;;;;9.70;7.45;;;13.20;99.90;;;;;;5033653;28;20017;-78
2023/03/17 01:46:08;;;;;;;10.88;8.40;;;13.10;99.90;;;;;;5033422;28;20047;-78
2023/03/17 01:48:54;;;;;;;9.68;7.68;;;13.10;99.90;;;;;;5033841;28;20030;-79
2023/03/17 01:51:30;;;;;;;10.32;7.35;;;13.20;99.90;;;;;;5033530;28;20037;-78
2023/03/17 01:53:56;;;;;;;13.15;7.85;;;13.20;99.90;;;;;;5017167;28;20401;-79
2023/03/17 01:56:22;;;;;;;11.23;7.68;;;13.20;99.90;;;;;;5015612;28;20041;-79
2023/03/17 01:58:50;;;;;;;10.15;7.57;;;13.20;99.90;;;;;;5016360;28;20471;-78
2023/03/17 02:01:16;;;;;;;12.10;7.72;;;13.20;99.90;;;;;;4998632;28;20040;-78
2023/03/17 02:03:42;;;;;;;10.68;7.60;;;13.10;99.90;;;;;;5032347;28;20045;-78
2023/03/17 02:06:08;;;;;;;10.32;7.72;;;13.00;99.90;;;;;;4999838;28;20049;-79
2023/03/17 02:08:35;;;;;;;11.65;7.75;;;13.00;99.90;;;;;;5016025;28;20459;-79
2023/03/17 02:11:03;;;;;;;11.50;7.90;;;13.00;99.90;;;;;;5031907;28;20029;-79
2023/03/17 02:13:30;;;;;;;10.05;7.25;;;12.90;99.90;;;;;;4998442;28;20387;-79
2023/03/17 02:15:57;;;;;;;9.38;7.65;;;12.80;99.90;;;;;;5011808;28;20049;-79
2023/03/17 02:18:23;;;;;;;11.23;7.32;;;12.60;99.90;;;;;;5012570;28;20040;-78
2023/03/17 02:21:09;;;;;;;9.77;7.25;;;12.20;99.90;;;;;;5028661;28;20467;-78
2023/03/17 02:23:35;;;;;;;8.82;7.38;;;12.00;99.90;;;;;;5013370;28;20042;-78
2023/03/17 02:26:02;;;;;;;11.73;7.60;;;11.80;99.90;;;;;;5021916;28;20037;-78
2023/03/17 02:28:29;;;;;;;10.27;7.78;;;11.70;99.90;;;;;;5015743;28;20487;-79
2023/03/17 02:30:56;;;;;;;10.48;8.10;;;11.70;99.90;;;;;;5031487;28;20033;-78
2023/03/17 02:33:22;;;;;;;10.77;7.95;;;11.80;99.90;;;;;;5031859;28;20017;-78
2023/03/17 02:35:48;;;;;;;9.98;7.90;;;11.90;99.90;;;;;;5031640;28;20025;-78
2023/03/17 02:38:14;;;;;;;14.02;7.38;;;12.00;99.90;;;;;;5033002;28;20490;-78
2023/03/17 02:40:41;;;;;;;12.00;6.95;;;11.90;99.90;;;;;;5032682;28;20026;-78
2023/03/17 02:43:07;;;;;;;8.15;6.72;;;11.90;99.90;;;;;;5031782;28;20033;-78
2023/03/17 02:45:33;;;;;;;9.65;6.88;;;11.80;99.90;;;;;;5031126;28;20040;-79
2023/03/17 02:48:00;;;;;;;8.80;6.65;;;11.80;99.90;;;;;;5031594;28;20402;-78
2023/03/17 02:50:26;;;;;;;8.50;6.68;;;11.80;99.90;;;;;;5015091;28;20029;-79
2023/03/17 02:52:52;;;;;;;8.55;6.55;;;12.00;99.90;;;;;;5031556;28;20402;-78
2023/03/17 02:55:19;;;;;;;10.02;6.22;;;12.10;99.90;;;;;;5032468;28;20390;-78
2023/03/17 02:57:45;;;;;;;6.88;5.90;;;12.20;99.90;;;;;;5015210;28;20029;-78
2023/03/17 03:00:13;;;;;;;7.22;5.97;;;12.30;99.90;;;;;;5031083;28;20037;-78
2023/03/17 03:02:39;;;;;;;9.93;6.18;;;12.50;99.90;;;;;;5032470;28;20040;-78
2023/03/17 03:05:06;;;;;;;12.02;6.82;;;12.60;99.90;;;;;;5031309;28;20029;-79
2023/03/17 03:07:32;;;;;;;8.15;7.03;;;12.50;99.90;;;;;;5015135;28;20044;-79
2023/03/17 03:09:58;;;;;;;9.38;6.65;;;12.60;99.90;;;;;;5032045;28;20390;-79
2023/03/17 03:12:24;;;;;;;12.57;7.43;;;12.70;99.90;;;;;;5005643;28;20022;-79
2023/03/17 03:14:50;;;;;;;8.00;6.88;;;12.70;99.90;;;;;;5028023;28;20026;-79
2023/03/17 03:17:16;;;;;;;10.13;7.25;;;12.60;99.90;;;;;;5012137;28;20053;-79
2023/03/17 03:19:42;;;;;;;11.05;7.75;;;12.60;99.90;;;;;;5011415;28;20022;-78
2023/03/17 03:22:09;;;;;;;12.15;7.53;;;12.40;99.90;;;;;;5027596;28;20495;-78
2023/03/17 03:24:36;;;;;;;11.88;7.57;;;12.10;99.90;;;;;;5012204;28;20050;-78
2023/03/17 03:27:03;;;;;;;9.70;8.02;;;11.80;99.90;;;;;;5029793;28;20045;-78
2023/03/17 03:29:29;;;;;;;9.93;8.02;;;11.70;99.90;;;;;;5031176;28;20033;-78
2023/03/17 03:31:55;;;;;;;12.10;7.70;;;11.70;99.90;;;;;;5030565;28;20038;-78
2023/03/17 03:34:21;;;;;;;9.13;7.25;;;11.80;99.90;;;;;;5032041;28;20017;-77
2023/03/17 03:36:48;;;;;;;9.73;7.80;;;11.80;99.90;;;;;;5032243;28;20036;-78
2023/03/17 03:39:14;;;;;;;9.98;7.25;;;11.90;99.90;;;;;;5014392;28;20494;-78
2023/03/17 03:41:40;;;;;;;12.00;7.05;;;11.80;99.90;;;;;;5014723;28;20037;-78
2023/03/17 03:44:06;;;;;;;12.98;6.85;;;11.80;99.90;;;;;;5032130;28;20377;-78
2023/03/17 03:46:32;;;;;;;10.93;7.53;;;11.90;99.90;;;;;;5014145;28;20041;-78
2023/03/17 03:48:58;;;;;;;9.93;7.13;;;11.90;99.90;;;;;;5031878;28;20351;-78
2023/03/17 03:51:24;;;;;;;11.20;7.68;;;11.70;99.90;;;;;;5031089;28;20032;-78
2023/03/17 03:53:50;;;;;;;8.68;7.22;;;11.60;99.90;;;;;;5031773;28;20378;-78
2023/03/17 03:56:16;;;;;;;9.75;7.15;;;11.60;99.90;;;;;;5032035;28;20033;-78
2023/03/17 03:58:42;;;;;;;10.02;7.25;;;11.60;99.90;;;;;;5031911;28;20485;-78
2023/03/17 04:01:09;;;;;;;11.18;7.38;;;11.50;99.90;;;;;;5030137;28;20026;-78
2023/03/17 04:03:36;;;;;;;7.93;6.45;;;11.50;99.90;;;;;;5030730;28;20026;-78
2023/03/17 04:06:02;;;;;;;10.23;6.75;;;11.50;99.90;;;;;;5030612;28;20045;-78
2023/03/17 04:08:28;;;;;;;9.05;7.20;;;11.50;99.90;;;;;;5030380;28;20029;-78
2023/03/17 04:10:54;;;;;;;6.72;6.03;;;11.50;99.90;;;;;;5031918;28;20025;-79
2023/03/17 04:13:21;;;;;;;6.82;5.55;;;11.40;99.90;;;;;;5015235;28;20034;-78
2023/03/17 04:15:47;;;;;;;7.40;5.38;;;11.40;99.90;;;;;;5026121;28;20411;-78
2023/03/17 04:18:13;;;;;;;9.30;4.88;;;11.50;99.90;;;;;;5022090;28;20033;-78
2023/03/17 04:20:39;;;;;;;5.50;4.65;;;11.50;99.90;;;;;;5016854;28;20390;-78
2023/03/17 04:23:05;;;;;;;7.68;4.80;;;11.60;99.90;;;;;;5021733;28;20025;-78
2023/03/17 04:25:32;;;;;;;12.68;5.70;;;11.60;99.90;;;;;;5025065;28;20497;-79
2023/03/17 04:27:58;;;;;;;6.18;4.50;;;11.70;99.90;;;;;;5035241;28;20433;-79
2023/03/17 04:30:24;;;;;;;6.90;4.35;;;11.90;99.90;;;;;;5034868;28;20032;-78
2023/03/17 04:32:50;;;;;;;9.55;4.18;;;11.90;99.90;;;;;;5034029;28;20382;-78
2023/03/17 04:35:18;;;;;;;6.72;3.83;;;12.00;99.90;;;;;;5015480;28;20106;-77
2023/03/17 04:37:44;;;;;;;5.55;3.42;;;12.00;99.90;;;;;;5013991;28;20026;-78
2023/03/17 04:40:11;;;;;;;7.82;4.00;;;12.10;99.90;;;;;;5014025;28;20487;-79
2023/03/17 04:42:37;;;;;;;6.88;3.65;;;12.20;99.90;;;;;;5015843;28;20045;-78
2023/03/17 04:45:05;;;;;;;11.77;4.00;;;12.30;99.90;;;;;;5013626;28;20029;-78
2023/03/17 04:47:31;;;;;;;7.40;4.07;;;12.30;99.90;;;;;;5014066;28;20042;-79
2023/03/17 04:49:57;;;;;;;5.85;4.35;;;12.40;99.90;;;;;;5015860;28;20018;-78
2023/03/17 04:52:23;;;;;;;4.72;4.22;;;12.30;99.90;;;;;;5016934;28;20029;-78
2023/03/17 04:54:49;;;;;;;4.70;3.78;;;12.30;99.90;;;;;;5017338;28;20439;-78
2023/03/17 04:57:16;;;;;;;5.45;4.32;;;12.30;99.90;;;;;;5034802;28;20570;-78
2023/03/17 04:59:42;;;;;;;7.93;4.30;;;12.20;99.90;;;;;;5034699;28;20470;-78
2023/03/17 05:02:08;;;;;;;8.90;3.97;;;12.20;99.90;;;;;;5016878;28;20040;-78
2023/03/17 05:04:34;;;;;;;6.63;3.63;;;12.20;99.90;;;;;;5033367;28;20471;-79
2023/03/17 05:07:00;;;;;;;4.95;4.10;;;12.20;99.90;;;;;;5034206;28;20037;-79
2023/03/17 05:09:27;;;;;;;8.68;4.53;;;12.30;99.90;;;;;;5034849;28;20025;-78
2023/03/17 05:11:53;;;;;;;6.07;3.90;;;12.30;99.90;;;;;;5029912;28;20378;-79
2023/03/17 05:14:20;;;;;;;6.90;4.00;;;12.20;99.90;;;;;;4997216;28;20503;-79
2023/03/17 05:16:47;;;;;;;7.97;4.35;;;12.20;99.90;;;;;;5029557;28;20034;-79
2023/03/17 05:19:13;;;;;;;6.85;4.30;;;12.20;99.90;;;;;;5013462;28;20030;-78
2023/03/17 05:21:40;;;;;;;7.45;4.40;;;12.20;99.90;;;;;;5014082;28;20065;-78
2023/03/17 05:24:06;;;;;;;9.05;4.50;;;12.30;99.90;;;;;;5031395;28;20030;-78
2023/03/17 05:26:32;;;;;;;5.93;4.10;;;12.30;99.90;;;;;;5016622;28;20045;-79
2023/03/17 05:28:58;;;;;;;7.50;4.00;;;12.30;99.90;;;;;;5032966;28;20463;-79
2023/03/17 05:31:24;;;;;;;7.85;4.32;;;12.40;99.90;;;;;;5033816;28;20034;-79
2023/03/17 05:33:50;;;;;;;14.50;5.00;;;12.50;99.90;;;;;;5033946;28;20029;-78
2023/03/17 05:36:17;;;;;;;7.32;4.68;;;12.40;99.90;;;;;;5032866;28;20037;-77
2023/03/17 05:38:43;;;;;;;8.10;5.07;;;12.40;99.90;;;;;;5034206;28;20025;-79
2023/03/17 05:41:09;;;;;;;5.47;4.60;;;12.40;99.90;;;;;;5016553;28;20025;-79
2023/03/17 05:43:36;;;;;;;7.82;4.82;;;12.50;99.90;;;;;;5032906;28;20032;-79
2023/03/17 05:46:02;;;;;;;9.25;4.38;;;12.50;99.90;;;;;;5015833;28;20025;-78
2023/03/17 05:48:29;;;;;;;6.15;4.38;;;12.50;99.90;;;;;;5015892;28;20036;-79
2023/03/17 05:50:55;;;;;;;8.93;4.55;;;12.50;99.90;;;;;;5033998;28;20040;-79
2023/03/17 05:53:22;;;;;;;6.88;4.13;;;12.60;99.90;;;;;;5033714;28;20025;-78
2023/03/17 05:55:48;;;;;;;5.10;4.60;;;12.60;99.90;;;;;;5034221;28;20402;-78
2023/03/17 05:58:15;;;;;;;8.18;4.30;;;12.60;99.90;;;;;;5034048;28;20038;-78
2023/03/17 06:00:41;;;;;;;8.32;4.13;;;12.60;99.90;;;;;;5033223;28;20422;-78
2023/03/17 06:03:07;;;;;;;5.43;4.10;;;12.60;99.90;;;;;;5033297;28;20034;-78
2023/03/17 06:05:34;;;;;;;5.78;3.85;;;12.60;99.90;;;;;;5032362;28;20037;-79
2023/03/17 06:08:00;;;;;;;7.88;3.83;;;12.40;99.90;;;;;;5032119;28;20070;-81
2023/03/17 06:10:27;;;;;;;5.05;3.90;;;12.40;99.90;;;;;;5033556;28;20034;-79
2023/03/17 06:12:53;;;;;;;6.55;4.03;;;12.40;99.90;;;;;;5020722;28;20037;-82
2023/03/17 06:15:19;;;;;;;8.27;3.80;;;12.40;99.90;;;;;;5011825;28;20502;-79
2023/03/17 06:17:45;;;;;;;6.57;3.72;;;12.40;99.90;;;;;;5013604;28;20037;-78
2023/03/17 06:20:12;;;;;;;7.25;3.70;;;12.40;99.90;;;;;;5013701;28;20030;-78
2023/03/17 06:22:38;;;;;;;5.00;3.78;;;12.50;99.90;;;;;;5013118;28;20042;-79
2023/03/17 06:25:05;;;;;;;5.70;3.40;;;12.60;99.90;;;;;;5005523;28;20030;-79
2023/03/17 06:27:31;;;;;;;7.43;3.30;;;12.60;99.90;;;;;;5033279;28;20044;-79
2023/03/17 06:29:59;;;;;;;8.45;3.40;;;12.60;99.90;;;;;;5031924;28;20029;-79
2023/03/17 06:32:25;;;;;;;7.05;3.45;;;12.40;99.90;;;;;;5031095;28;20478;-79
2023/03/17 06:34:52;;;;;;;5.78;3.50;;;12.50;99.90;;;;;;5015366;28;20045;-79
2023/03/17 06:37:20;;;;;;;6.35;3.40;;;12.50;99.90;;;;;;5033166;28;20053;-79
2023/03/17 06:39:46;;;;;;;6.82;3.42;;;12.60;99.90;;;;;;5031975;28;20021;-79
2023/03/17 06:42:13;;;;;;;8.07;4.03;;;12.60;99.90;;;;;;5033038;28;20052;-79
2023/03/17 06:44:40;;;;;;;6.32;3.40;;;12.50;99.90;;;;;;5031612;28;20026;-79
2023/03/17 06:47:06;;;;;;;6.32;3.25;;;12.20;99.90;;;;;;5014086;28;20045;-79
2023/03/17 06:49:32;;;;;;;6.13;4.03;;;12.20;99.90;;;;;;5032589;28;20033;-79
2023/03/17 06:51:58;;;;;;;7.97;3.85;;;12.20;99.90;;;;;;5032676;28;20037;-79
2023/03/17 06:54:25;;;;;;;4.68;3.88;;;12.30;99.90;;;;;;5031457;28;20454;-79
2023/03/17 06:56:51;;;;;;;8.55;3.47;;;12.40;99.90;;;;;;5031522;28;20029;-79
2023/03/17 06:59:18;;;;;;;7.00;3.40;;;12.40;99.90;;;;;;5032693;28;20033;-78
2023/03/17 07:01:45;;;;;;;7.28;3.63;;;12.10;99.90;;;;;;5032186;28;20034;-78
2023/03/17 07:04:11;;;;;;;6.85;3.70;;;12.10;99.90;;;;;;5031362;28;20541;-79
2023/03/17 07:06:38;;;;;;;5.40;3.80;;;12.00;99.90;;;;;;5032488;28;20037;-80
2023/03/17 07:09:04;;;;;;;4.97;3.60;;;12.10;99.90;;;;;;5032589;28;20482;-79
2023/03/17 07:11:31;;;;;;;7.53;4.10;;;12.20;99.90;;;;;;5029866;28;20042;-79
2023/03/17 07:13:57;;;;;;;8.98;4.35;;;12.30;99.90;;;;;;5012546;28;20040;-80
2023/03/17 07:16:23;;;;;;;10.18;4.07;;;12.40;99.90;;;;;;5010550;28;20030;-79
2023/03/17 07:18:50;;;;;;;5.85;3.90;;;12.50;99.90;;;;;;5011484;28;20074;-81
2023/03/17 07:21:16;;;;;;;7.63;3.88;;;12.50;99.90;;;;;;5011144;28;20431;-79
2023/03/17 07:23:42;;;;;;;7.95;3.90;;;12.50;99.90;;;;;;5012449;28;20038;-78
2023/03/17 07:26:08;;;;;;;6.07;3.60;;;12.60;99.90;;;;;;5030984;28;20466;-78
2023/03/17 07:28:35;;;;;;;5.30;3.60;;;12.60;99.90;;;;;;5031171;28;20054;-80
2023/03/17 07:31:01;;;;;;;6.45;3.50;;;12.70;99.90;;;;;;5030220;28;20029;-79
2023/03/17 07:33:27;;;;;;;6.80;3.78;;;12.60;99.90;;;;;;5032125;28;20463;-79
2023/03/17 07:35:53;;;;;;;9.02;3.70;;;12.60;99.90;;;;;;5031062;28;20033;-79
2023/03/17 07:38:20;;;;;;;8.90;3.40;;;12.60;99.90;;;;;;5014529;28;20041;-78
2023/03/17 07:40:46;;;;;;;7.65;3.60;;;12.60;99.90;;;;;;5032078;28;20036;-79
2023/03/17 07:43:13;;;;;;;8.25;3.80;;;12.60;99.90;;;;;;5030782;28;20029;-79
2023/03/17 07:45:39;;;;;;;7.18;3.50;;;12.70;99.90;;;;;;5013558;28;20036;-80
2023/03/17 07:48:05;;;;;;;5.90;3.70;;;12.80;99.90;;;;;;5030900;28;20041;-79
2023/03/17 07:50:32;;;;;;;5.88;3.55;;;12.80;99.90;;;;;;5030801;28;20033;-80
2023/03/17 07:52:58;;;;;;;9.93;4.03;;;12.80;99.90;;;;;;5014528;28;20382;-79
2023/03/17 07:55:25;;;;;;;6.03;3.63;;;12.80;99.90;;;;;;5030596;28;20038;-79
2023/03/17 07:57:51;;;;;;;6.38;3.42;;;12.90;99.90;;;;;;5031906;28;20056;-79
2023/03/17 08:00:18;;;;;;;6.38;3.40;;;12.90;99.90;;;;;;5034531;28;20028;-81
2023/03/17 08:02:45;;;;;;;6.18;3.65;;;12.90;99.90;;;;;;5018388;28;20022;-79
2023/03/17 08:05:12;;;;;;;6.13;3.60;;;13.00;99.90;;;;;;5034646;28;20040;-79
2023/03/17 08:07:38;;;;;;;6.35;3.53;;;13.10;99.90;;;;;;5035874;28;20061;-79
2023/03/17 08:10:07;;;;;;;5.82;3.85;;;13.20;99.90;;;;;;5034883;28;20466;-80
2023/03/17 08:12:34;;;;;;;4.95;3.63;;;13.20;99.90;;;;;;5024290;28;20413;-80
2023/03/17 08:15:00;;;;;;;7.15;3.70;;;13.10;99.90;;;;;;5030816;28;20040;-79
2023/03/17 08:17:26;;;;;;;7.40;3.60;;;13.00;99.90;;;;;;5014068;28;20034;-79
2023/03/17 08:19:53;;;;;;;9.68;4.15;;;13.00;99.90;;;;;;4997676;28;20053;-79
2023/03/17 08:22:19;;;;;;;6.43;3.35;;;13.10;99.90;;;;;;5015621;28;20479;-80
2023/03/17 08:24:45;;;;;;;8.57;4.03;;;13.10;99.90;;;;;;5021628;28;20044;-79
2023/03/17 08:27:12;;;;;;;12.82;4.28;;;13.20;99.90;;;;;;5034155;28;20029;-79
2023/03/17 08:29:38;;;;;;;6.45;3.78;;;13.30;99.90;;;;;;5017566;28;20029;-78
2023/03/17 08:32:05;;;;;;;8.52;3.70;;;13.40;99.90;;;;;;5033756;28;20025;-79
2023/03/17 08:34:31;;;;;;;5.57;3.75;;;13.30;99.90;;;;;;5035191;28;20029;-79
2023/03/17 08:36:59;;;;;;;8.43;4.43;;;13.20;99.90;;;;;;5034133;28;20025;-79
2023/03/17 08:39:25;;;;;;;5.28;3.67;;;13.20;99.90;;;;;;5034112;28;20026;-79
2023/03/17 08:41:51;;;;;;;6.22;4.00;;;13.30;99.90;;;;;;5035572;28;20026;-79
2023/03/17 08:44:18;;;;;;;5.90;4.20;;;13.30;99.90;;;;;;5033681;28;20032;-81
2023/03/17 08:46:44;;;;;;;7.65;3.97;;;13.30;99.90;;;;;;5034735;28;20033;-81
2023/03/17 08:49:11;;;;;;;8.82;4.43;;;13.20;99.90;;;;;;5033827;28;20040;-81
2023/03/17 08:51:37;;;;;;;7.55;4.30;;;13.30;99.90;;;;;;5033876;28;20030;-79
2023/03/17 08:54:04;;;;;;;6.43;4.05;;;13.30;99.90;;;;;;5033905;28;20513;-79
2023/03/17 08:56:30;;;;;;;7.22;3.75;;;13.40;99.90;;;;;;5017236;28;20025;-82
2023/03/17 08:58:57;;;;;;;9.32;3.85;;;13.40;99.90;;;;;;5033377;28;20021;-80
2023/03/17 09:01:23;;;;;;;9.35;4.07;;;13.40;99.90;;;;;;5016756;28;20498;-81
2023/03/17 09:03:50;;;;;;;6.20;3.70;;;13.50;99.90;;;;;;5001080;28;20037;-81
2023/03/17 09:06:16;;;;;;;6.22;4.47;;;13.50;99.90;;;;;;5034919;28;20561;-79
2023/03/17 09:08:48;;;;;;;6.55;4.80;;;13.50;99.90;;;;;;5033383;28;20041;-82
2023/03/17 09:11:16;;;;;;;9.52;4.53;;;13.50;99.90;;;;;;5017185;28;20021;-81
2023/03/17 09:13:42;;;;;;;9.00;4.55;;;13.50;99.90;;;;;;5014701;28;20025;-82
2023/03/17 09:16:08;;;;;;;10.30;5.40;;;13.50;99.90;;;;;;5029959;28;20030;-82
2023/03/17 09:18:34;;;;;;;15.13;4.85;;;13.60;99.90;;;;;;5030008;28;20038;-82
2023/03/17 09:21:02;;;;;;;7.22;4.90;;;13.70;99.90;;;;;;5013333;28;20041;-81
2023/03/17 09:23:28;;;;;;;5.35;4.75;;;13.70;99.90;;;;;;5013321;28;20041;-82
2023/03/17 09:25:54;;;;;;;8.23;4.53;;;13.70;99.90;;;;;;5030809;28;20022;-82
2023/03/17 09:28:20;;;;;;;9.65;3.95;;;13.80;99.90;;;;;;5034203;28;20042;-81
2023/03/17 09:30:46;;;;;;;5.72;3.92;;;13.90;99.90;;;;;;5034143;28;20036;-81
2023/03/17 09:33:13;;;;;;;7.18;3.92;;;14.00;99.90;;;;;;5034181;28;20374;-79
2023/03/17 09:35:39;;;;;;;9.43;4.38;;;14.10;99.90;;;;;;5032984;28;20033;-81
2023/03/17 09:38:06;;;;;;;8.02;4.25;;;14.10;99.90;;;;;;5000529;28;20037;-81
2023/03/17 09:40:36;;;;;;;9.50;4.03;;;14.20;99.90;;;;;;5016130;28;20033;-82
2023/03/17 09:43:17;;;;;;;5.72;4.38;;;14.20;99.90;;;;;;5016746;28;20032;-81
2023/03/17 09:45:44;;;;;;;7.60;4.50;;;14.30;99.90;;;;;;5017276;28;20036;-81
2023/03/17 09:48:28;;;;;;;8.18;3.88;;;14.40;99.90;;;;;;5000149;28;20056;-82
2023/03/17 09:51:10;;;;;;;8.45;4.00;;;14.50;99.90;;;;;;5018411;28;20028;-81
2023/03/17 09:54:01;;;;;;;8.77;4.03;;;14.40;99.90;;;;;;5016309;28;20040;-81
2023/03/17 09:56:33;;;;;;;10.43;4.97;;;14.40;99.90;;;;;;5032372;28;20032;-82
2023/03/17 09:59:02;;;;;;;5.70;3.83;;;14.50;99.90;;;;;;5016090;28;20038;-82
2023/03/17 10:01:28;;;;;;;8.25;3.75;;;14.60;99.90;;;;;;5033112;28;20030;-81
2023/03/17 10:03:55;;;;;;;15.07;3.75;;;14.70;99.90;;;;;;5032507;28;20036;-82
2023/03/17 10:06:32;;;;;;;8.63;3.85;;;14.70;99.90;;;;;;5032379;28;20044;-81
2023/03/17 10:09:22;;;;;;;7.10;3.90;;;14.80;99.90;;;;;;5033739;28;20056;-82
2023/03/17 10:12:06;;;;;;;8.48;3.80;;;14.90;99.90;;;;;;5028283;28;20022;-82
2023/03/17 10:14:56;;;;;;;6.95;3.80;;;15.00;99.90;;;;;;5012445;28;20021;-80
2023/03/17 10:17:24;;;;;;;11.02;3.85;;;15.10;99.90;;;;;;5011813;28;20037;-80
2023/03/17 10:19:56;;;;;;;4.70;3.50;;;15.20;99.90;;;;;;5012394;28;20026;-79
2023/03/17 10:22:25;;;;;;;9.27;4.47;;;15.30;99.90;;;;;;5011276;28;20046;-79
2023/03/17 10:24:53;;;;;;;8.77;4.72;;;15.40;99.90;;;;;;5021222;28;20040;-80
2023/03/17 10:27:20;;;;;;;10.88;5.43;;;15.50;99.90;;;;;;5015532;28;20040;-79
2023/03/17 10:29:46;;;;;;;12.27;5.22;;;15.60;99.90;;;;;;5033198;28;20029;-80
2023/03/17 10:32:13;;;;;;;10.07;5.28;;;15.70;99.90;;;;;;5031565;28;20096;-80
2023/03/17 10:34:40;;;;;;;9.13;4.90;;;15.90;99.90;;;;;;5031872;28;20482;-81
2023/03/17 10:37:19;;;;;;;9.07;4.68;;;16.00;99.90;;;;;;5015618;28;20033;-81
2023/03/17 10:39:53;;;;;;;9.93;5.38;;;16.10;99.90;;;;;;5032646;28;20390;-82
2023/03/17 10:42:29;;;;;;;7.60;5.63;;;16.20;99.90;;;;;;5031676;28;20029;-81
2023/03/17 10:45:03;;;;;;;11.48;5.03;;;16.20;99.90;;;;;;5015835;28;20034;-81
2023/03/17 10:47:39;;;;;;;7.57;4.70;;;16.30;99.90;;;;;;5014813;28;20049;-81
2023/03/17 10:50:15;;;;;;;9.85;4.38;;;16.30;99.90;;;;;;5031887;28;20040;-80
2023/03/17 10:52:42;;;;;;;8.07;4.90;;;16.30;99.90;;;;;;5032662;28;20034;-79
2023/03/17 10:55:12;;;;;;;7.95;4.20;;;16.40;99.90;;;;;;5014927;28;20491;-81
2023/03/17 10:57:38;;;;;;;7.35;4.82;;;16.30;99.90;;;;;;5015663;28;20390;-81
2023/03/17 11:00:18;;;;;;;9.15;4.78;;;16.30;99.90;;;;;;5014468;28;20029;-81
2023/03/17 11:02:47;;;;;;;9.35;4.60;;;16.50;99.90;;;;;;5015441;28;20025;-80
2023/03/17 11:05:23;;;;;;;8.23;4.68;;;16.60;99.90;;;;;;5015064;28;20038;-80
2023/03/17 11:07:53;;;;;;;11.15;4.95;;;16.70;99.90;;;;;;5031015;28;20033;-80
2023/03/17 11:10:24;;;;;;;8.25;4.85;;;16.90;99.90;;;;;;4998967;28;20044;-80
2023/03/17 11:13:00;;;;;;;12.23;4.70;;;17.00;99.90;;;;;;5018926;28;20466;-80
2023/03/17 11:15:35;;;;;;;6.15;4.63;;;16.90;99.90;;;;;;5011075;28;20034;-80
2023/03/17 11:18:27;;;;;;;7.32;5.13;;;16.90;99.90;;;;;;5028254;28;20045;-82
2023/03/17 11:20:55;;;;;;;9.77;4.85;;;16.80;99.90;;;;;;5006996;28;20046;-81
2023/03/17 11:23:45;;;;;;;7.70;4.80;;;16.90;99.90;;;;;;5010904;28;20386;-81
2023/03/17 11:26:45;;;;;;;12.07;5.13;;;17.00;99.90;;;;;;5030160;28;20025;-79
2023/03/17 11:29:48;;;;;;;8.17;5.13;;;17.10;99.90;;;;;;5032403;28;20497;-80
2023/03/17 11:32:32;;;;;;;9.60;4.65;;;17.30;99.90;;;;;;5032056;28;20279;-80
2023/03/17 11:35:35;;;;;;;9.82;4.95;;;17.50;99.90;;;;;;5032019;28;20029;-80
2023/03/17 11:38:27;;;;;;;8.63;5.38;;;17.60;99.90;;;;;;5031941;28;20525;-80
2023/03/17 11:41:09;;;;;;;9.75;5.25;;;17.80;99.90;;;;;;5031254;28;20486;-80
2023/03/17 11:43:54;;;;;;;9.18;5.43;;;18.00;99.90;;;;;;5032393;28;20026;-80
2023/03/17 11:46:30;;;;;;;9.13;5.63;;;18.10;99.90;;;;;;5030494;28;20030;-79
2023/03/17 11:49:11;;;;;;;7.93;5.03;;;18.20;99.90;;;;;;5031023;28;20045;-80
2023/03/17 11:51:44;;;;;;;;;;;18.20;99.90;;;;;;5032177;28;20033;-79
2023/03/17 11:54:16;;;;;;;10.38;5.80;;;18.30;99.90;;;;;;5030990;28;19912;-80
2023/03/17 11:56:48;;;;;;;8.88;4.82;;;18.50;99.90;;;;;;5030729;28;20031;-80
2023/03/17 11:59:29;;;;;;;8.10;4.88;;;18.70;99.90;;;;;;5014729;28;20021;-80
2023/03/17 12:02:01;;;;;;;8.35;4.15;;;18.80;99.90;;;;;;5030401;28;20022;-80
2023/03/17 12:04:36;;;;;;;11.68;4.75;;;19.00;99.90;;;;;;5014946;28;20029;-80
2023/03/17 12:07:14;;;;;;;7.35;5.10;;;19.00;99.90;;;;;;5014278;28;20033;-80
2023/03/17 12:09:45;;;;;;;10.07;4.50;;;19.10;99.90;;;;;;5015486;28;20386;-82
2023/03/17 12:12:12;;;;;;;7.55;5.50;;;19.40;99.90;;;;;;5024948;28;20026;-80
2023/03/17 12:14:45;;;;;;;5.63;3.90;;;19.40;99.90;;;;;;5010951;28;20042;-80
2023/03/17 12:17:24;;;;;;;9.15;4.78;;;19.30;99.90;;;;;;5026780;28;20049;-80
2023/03/17 12:20:14;;;;;;;6.75;4.28;;;19.30;99.90;;;;;;5028301;28;20026;-79
2023/03/17 12:23:04;;;;;;;11.88;4.85;;;19.30;99.90;;;;;;5010817;28;20050;-79
2023/03/17 12:25:32;;;;;;;10.93;4.90;;;19.40;99.90;;;;;;4993934;28;20037;-79
2023/03/17 12:28:03;;;;;;;8.70;5.00;;;19.40;99.90;;;;;;5014203;28;20022;-79
2023/03/17 12:30:57;;;;;;;8.07;4.80;;;19.40;99.90;;;;;;5030176;28;20506;-80
2023/03/17 12:33:57;;;;;;;7.07;4.72;;;19.50;99.90;;;;;;5027701;28;20057;-79
2023/03/17 12:36:24;;;;;;;6.45;4.90;;;19.70;99.90;;;;;;5030249;28;20029;-79
2023/03/17 12:38:58;;;;;;;7.63;5.07;;;19.70;99.90;;;;;;5014284;28;20041;-79
2023/03/17 12:41:42;;;;;;;9.55;5.10;;;19.70;99.90;;;;;;5030423;28;20022;-79
2023/03/17 12:44:44;;;;;;;6.93;5.18;;;19.50;99.90;;;;;;5031781;28;20025;-79
2023/03/17 12:47:16;;;;;;;6.90;5.10;;;19.40;99.90;;;;;;5034076;28;20033;-79
2023/03/17 12:49:48;;;;;;;7.28;5.38;;;19.30;99.90;;;;;;5033522;28;20045;-79
2023/03/17 12:52:48;;;;;;;5.10;4.60;;;19.10;99.90;;;;;;5035068;28;20033;-79
2023/03/17 12:55:15;;;;;;;8.98;5.57;;;19.10;99.90;;;;;;5034857;28;20026;-79